Time;durP1;ratioP1;P1;durP2;ratioP2;P2;SDS_P1;SDS_P2;PMS_P1;PMS_P2;Temp;Humidity;BMP_temperature;BMP_pressure;BME280_temperature;BME280_humidity;BME280_pressure;Samples;Min_cycle;Max_cycle;Signal;HPM_P1;HPM_P2
2022/11/25 00:00:45;;;;;;;15.65;4.40;;;7.30;99.90;;;;;;6186277;23;20013;-80
2022/11/25 00:03:11;;;;;;;14.57;3.60;;;7.40;99.90;;;;;;6159591;23;20013;-80
2022/11/25 00:05:36;;;;;;;18.08;3.55;;;7.40;99.90;;;;;;6186095;23;20051;-80
2022/11/25 00:08:02;;;;;;;22.45;4.82;;;7.30;99.90;;;;;;6186203;23;20059;-80
2022/11/25 00:10:28;;;;;;;13.75;3.38;;;7.40;99.90;;;;;;6185922;23;20461;-80
2022/11/25 00:12:53;;;;;;;12.90;3.97;;;7.40;99.90;;;;;;6186240;23;20372;-80
2022/11/25 00:15:19;;;;;;;14.32;3.95;;;7.40;99.90;;;;;;6185576;23;20013;-80
2022/11/25 00:17:45;;;;;;;20.65;5.50;;;7.40;99.90;;;;;;6159573;23;20060;-80
2022/11/25 00:20:11;;;;;;;19.13;4.38;;;7.40;99.90;;;;;;6186183;23;20374;-80
2022/11/25 00:22:36;;;;;;;12.57;3.58;;;7.30;99.90;;;;;;6186088;23;20044;-80
2022/11/25 00:25:02;;;;;;;16.35;4.30;;;7.30;99.90;;;;;;6186138;23;20032;-80
2022/11/25 00:27:28;;;;;;;15.45;4.10;;;7.30;99.90;;;;;;6186047;23;20025;-80
2022/11/25 00:29:54;;;;;;;14.27;4.38;;;7.40;99.90;;;;;;6159464;23;20014;-80
2022/11/25 00:32:19;;;;;;;19.10;5.22;;;7.30;99.90;;;;;;6160684;23;20021;-80
2022/11/25 00:34:45;;;;;;;22.20;4.40;;;7.30;99.90;;;;;;6187993;23;20497;-80
2022/11/25 00:37:10;;;;;;;16.40;3.70;;;7.30;99.90;;;;;;6161255;23;20017;-80
2022/11/25 00:39:36;;;;;;;18.00;4.47;;;7.30;99.90;;;;;;6187949;23;20009;-80
2022/11/25 00:44:46;;;;;;;14.55;3.97;;;7.30;99.90;;;;;;6187944;23;20084;-81
2022/11/25 00:47:14;;;;;;;11.15;3.65;;;7.30;99.90;;;;;;6187756;23;20025;-80
2022/11/25 00:49:42;;;;;;;17.38;5.05;;;7.30;99.90;;;;;;6187455;23;20453;-81
2022/11/25 00:52:08;;;;;;;15.77;4.43;;;7.30;99.90;;;;;;6187443;23;20345;-80
2022/11/25 00:54:34;;;;;;;13.70;3.33;;;7.30;99.90;;;;;;6161168;23;20072;-81
2022/11/25 00:57:00;;;;;;;17.25;3.95;;;7.30;99.90;;;;;;6187476;23;20013;-80
2022/11/25 00:59:25;;;;;;;16.10;4.00;;;7.30;99.90;;;;;;6187460;23;20013;-80
2022/11/25 01:01:51;;;;;;;18.48;4.25;;;7.40;99.90;;;;;;6187728;23;20017;-80
2022/11/25 01:04:17;;;;;;;25.60;5.72;;;7.30;99.90;;;;;;6187472;23;20093;-80
2022/11/25 01:06:43;;;;;;;19.30;3.30;;;7.40;99.90;;;;;;6187619;23;20433;-80
2022/11/25 01:09:10;;;;;;;15.63;4.28;;;7.30;99.90;;;;;;6187679;23;20067;-80
2022/11/25 01:11:36;;;;;;;13.00;3.90;;;7.30;99.90;;;;;;6187522;23;20017;-80
2022/11/25 01:14:01;;;;;;;18.95;4.28;;;7.30;99.90;;;;;;6160955;23;20019;-80
2022/11/25 01:16:27;;;;;;;14.90;4.47;;;7.30;99.90;;;;;;6187160;23;20021;-80
2022/11/25 01:18:53;;;;;;;13.30;3.70;;;7.30;99.90;;;;;;6187516;23;20028;-80
2022/11/25 01:21:24;;;;;;;19.17;3.67;;;7.30;99.90;;;;;;6187573;23;20013;-79
2022/11/25 01:23:51;;;;;;;14.95;4.00;;;7.40;99.90;;;;;;6187108;23;20481;-79
2022/11/25 01:26:20;;;;;;;15.48;4.45;;;7.30;99.90;;;;;;6187403;23;20024;-79
2022/11/25 01:28:46;;;;;;;17.20;3.88;;;7.30;99.90;;;;;;6160809;23;20476;-80
2022/11/25 01:31:16;;;;;;;12.40;4.05;;;7.40;99.90;;;;;;6187433;23;20044;-80
2022/11/25 01:33:42;;;;;;;20.30;4.65;;;7.40;99.90;;;;;;6187461;23;20108;-80
2022/11/25 01:36:11;;;;;;;16.23;3.63;;;7.40;99.90;;;;;;6160707;23;20024;-80
2022/11/25 01:38:38;;;;;;;18.67;4.57;;;7.40;99.90;;;;;;6187383;23;20013;-80
2022/11/25 01:41:05;;;;;;;17.45;4.18;;;7.40;99.90;;;;;;6187121;23;20021;-80
2022/11/25 01:43:31;;;;;;;19.30;5.07;;;7.40;99.90;;;;;;6160103;23;20013;-80
2022/11/25 01:46:08;;;;;;;14.48;4.40;;;7.40;99.90;;;;;;6187203;23;20024;-80
2022/11/25 01:48:48;;;;;;;17.13;3.92;;;7.40;99.90;;;;;;6160715;23;20021;-80
2022/11/25 01:51:25;;;;;;;18.00;3.70;;;7.40;99.90;;;;;;6186979;23;20021;-80
2022/11/25 01:53:52;;;;;;;15.02;4.78;;;7.40;99.90;;;;;;6186895;23;20394;-80
2022/11/25 01:56:18;;;;;;;14.05;4.22;;;7.50;99.90;;;;;;6160502;23;20024;-79
2022/11/25 01:58:46;;;;;;;15.02;4.57;;;7.50;99.90;;;;;;6186800;23;20437;-80
2022/11/25 02:01:13;;;;;;;15.43;3.78;;;7.50;99.90;;;;;;6160460;23;20193;-80
2022/11/25 02:03:43;;;;;;;20.95;5.40;;;7.40;99.90;;;;;;6187332;23;20017;-80
2022/11/25 02:06:21;;;;;;;15.73;5.03;;;7.40;99.90;;;;;;6187036;23;20017;-80
2022/11/25 02:08:52;;;;;;;15.18;3.90;;;7.50;99.90;;;;;;6160391;23;20498;-80
2022/11/25 02:11:19;;;;;;;18.05;4.50;;;7.40;99.90;;;;;;6187176;23;20017;-80
2022/11/25 02:13:47;;;;;;;18.30;3.70;;;7.40;99.90;;;;;;6160385;23;20051;-80
2022/11/25 02:16:13;;;;;;;13.68;4.10;;;7.50;99.90;;;;;;6186589;23;20452;-80
2022/11/25 02:18:39;;;;;;;19.15;4.43;;;7.50;99.90;;;;;;6160334;23;20103;-80
2022/11/25 02:21:06;;;;;;;15.10;4.28;;;7.40;99.90;;;;;;6186623;23;20016;-80
2022/11/25 02:23:43;;;;;;;20.35;4.18;;;7.50;99.90;;;;;;6160324;23;20438;-81
2022/11/25 02:26:09;;;;;;;13.90;4.28;;;7.40;99.90;;;;;;6186875;23;20049;-81
2022/11/25 02:28:36;;;;;;;19.25;5.93;;;7.50;99.90;;;;;;6186979;23;20017;-81
2022/11/25 02:31:02;;;;;;;21.45;4.65;;;7.40;99.90;;;;;;6186917;23;20044;-81
2022/11/25 02:33:27;;;;;;;13.52;4.35;;;7.40;99.90;;;;;;6186658;23;20028;-81
2022/11/25 02:35:56;;;;;;;19.40;3.67;;;7.40;99.90;;;;;;6160108;23;20377;-81
2022/11/25 02:38:43;;;;;;;17.52;4.70;;;7.40;99.90;;;;;;6186867;23;20099;-80
2022/11/25 02:41:18;;;;;;;17.73;4.63;;;7.40;99.90;;;;;;6160078;23;20023;-81
2022/11/25 02:43:44;;;;;;;18.38;4.75;;;7.40;99.90;;;;;;6186786;23;20095;-81
2022/11/25 02:46:16;;;;;;;14.52;4.50;;;7.40;99.90;;;;;;6186708;23;20025;-81
2022/11/25 02:48:42;;;;;;;22.60;4.93;;;7.40;99.90;;;;;;6186392;23;20055;-81
2022/11/25 02:51:12;;;;;;;20.88;5.97;;;7.40;99.90;;;;;;6186725;23;20021;-81
2022/11/25 02:53:38;;;;;;;15.75;4.68;;;7.40;99.90;;;;;;6186695;23;20078;-81
2022/11/25 02:56:05;;;;;;;18.73;4.57;;;7.30;99.90;;;;;;6186230;23;20021;-81
2022/11/25 02:58:31;;;;;;;13.65;4.00;;;7.40;99.90;;;;;;6160020;23;20024;-81
2022/11/25 03:00:56;;;;;;;16.90;4.20;;;7.30;99.90;;;;;;6159948;23;20017;-82
2022/11/25 03:03:22;;;;;;;18.00;4.88;;;7.40;99.90;;;;;;6160001;23;20023;-81
2022/11/25 03:05:48;;;;;;;19.90;4.60;;;7.30;99.90;;;;;;6186546;23;20338;-82
2022/11/25 03:08:14;;;;;;;20.63;5.53;;;7.30;99.90;;;;;;6186594;23;20315;-82
2022/11/25 03:10:40;;;;;;;20.27;6.00;;;7.30;99.90;;;;;;6186619;23;20084;-82
2022/11/25 03:13:07;;;;;;;12.43;4.22;;;7.30;99.90;;;;;;6186577;23;20021;-82
2022/11/25 03:15:33;;;;;;;17.15;5.15;;;7.40;99.90;;;;;;6185899;23;20476;-82
2022/11/25 03:17:59;;;;;;;22.95;5.65;;;7.30;99.90;;;;;;6186473;23;20330;-81
2022/11/25 03:20:27;;;;;;;21.25;4.93;;;7.40;99.90;;;;;;6159735;23;20051;-81
2022/11/25 03:22:52;;;;;;;18.80;5.10;;;7.40;99.90;;;;;;6186050;23;20374;-82
2022/11/25 03:25:18;;;;;;;19.35;5.68;;;7.40;99.90;;;;;;6159747;23;20045;-82
2022/11/25 03:27:44;;;;;;;16.80;4.65;;;7.40;99.90;;;;;;6186419;23;20017;-82
2022/11/25 03:30:16;;;;;;;30.85;7.03;;;7.40;99.90;;;;;;6186358;23;20422;-81
2022/11/25 03:32:42;;;;;;;24.10;5.53;;;7.40;99.90;;;;;;6186385;23;20100;-81
2022/11/25 03:35:09;;;;;;;16.30;5.22;;;7.40;99.90;;;;;;6186041;23;20107;-81
2022/11/25 03:37:35;;;;;;;22.85;6.00;;;7.40;99.90;;;;;;6159749;23;20021;-80
2022/11/25 03:40:02;;;;;;;20.40;5.32;;;7.40;99.90;;;;;;6159680;23;20024;-82
2022/11/25 03:42:28;;;;;;;19.85;5.22;;;7.40;99.90;;;;;;6185922;23;20384;-82
2022/11/25 03:44:53;;;;;;;17.30;5.65;;;7.40;99.90;;;;;;6186261;23;20473;-81
2022/11/25 03:47:19;;;;;;;23.13;5.90;;;7.50;99.90;;;;;;6186229;23;20021;-82
2022/11/25 03:49:45;;;;;;;18.40;5.82;;;7.50;99.90;;;;;;6186270;23;20017;-82
2022/11/25 03:52:10;;;;;;;17.80;5.93;;;7.40;99.90;;;;;;6186299;23;20016;-82
2022/11/25 03:54:36;;;;;;;24.75;6.22;;;7.50;99.90;;;;;;6186335;23;20107;-82
2022/11/25 03:57:01;;;;;;;19.60;6.75;;;7.50;99.90;;;;;;6186304;23;20020;-83
2022/11/25 03:59:27;;;;;;;20.38;6.20;;;7.50;99.90;;;;;;6186247;23;20084;-82
2022/11/25 04:01:53;;;;;;;19.75;6.15;;;7.50;99.90;;;;;;6186242;23;20017;-82
2022/11/25 04:04:18;;;;;;;16.75;6.75;;;7.50;99.90;;;;;;6186185;23;20051;-82
2022/11/25 04:06:44;;;;;;;19.00;7.10;;;7.60;99.90;;;;;;6160221;23;20021;-82
2022/11/25 04:09:12;;;;;;;20.88;7.97;;;7.50;99.90;;;;;;6188306;23;20045;-82
2022/11/25 04:14:22;;;;;;;25.30;6.97;;;7.60;99.90;;;;;;6188049;23;20139;-82
2022/11/25 04:16:48;;;;;;;22.50;6.72;;;7.70;99.90;;;;;;6188229;23;20056;-82
2022/11/25 04:19:14;;;;;;;22.80;6.60;;;7.60;99.90;;;;;;6188166;23;20088;-82
2022/11/25 04:21:40;;;;;;;18.45;6.43;;;7.70;99.90;;;;;;6188129;23;20362;-82
2022/11/25 04:24:06;;;;;;;18.85;6.32;;;7.70;99.90;;;;;;6161515;23;20019;-82
2022/11/25 04:26:32;;;;;;;20.77;6.43;;;7.70;99.90;;;;;;6161189;23;20349;-82
2022/11/25 04:28:57;;;;;;;18.42;6.97;;;7.70;99.90;;;;;;6188319;23;20440;-82
2022/11/25 04:31:23;;;;;;;22.63;6.40;;;7.70;99.90;;;;;;6161394;23;20441;-82
2022/11/25 04:33:49;;;;;;;19.33;5.88;;;7.70;99.90;;;;;;6188026;23;20017;-82
2022/11/25 04:36:14;;;;;;;20.58;6.85;;;7.80;99.90;;;;;;6187683;23;20101;-82
2022/11/25 04:38:40;;;;;;;15.48;6.25;;;7.70;99.90;;;;;;6188036;23;20021;-81
2022/11/25 04:41:06;;;;;;;18.48;7.07;;;7.80;99.90;;;;;;6161205;23;20096;-82
2022/11/25 04:43:31;;;;;;;21.75;6.03;;;7.80;99.90;;;;;;6187983;23;20016;-82
2022/11/25 04:45:57;;;;;;;16.80;5.90;;;7.80;99.90;;;;;;6161085;23;20021;-82
2022/11/25 04:48:24;;;;;;;17.05;5.90;;;7.80;99.90;;;;;;6161129;23;20067;-82
2022/11/25 04:50:49;;;;;;;18.27;6.55;;;7.80;99.90;;;;;;6161136;23;20447;-82
2022/11/25 04:53:15;;;;;;;23.02;6.97;;;7.80;99.90;;;;;;6187526;23;20025;-82
2022/11/25 04:55:41;;;;;;;17.25;6.07;;;7.80;99.90;;;;;;6161055;23;20053;-82
2022/11/25 04:58:08;;;;;;;19.75;6.72;;;7.80;99.90;;;;;;6187788;23;20023;-82
2022/11/25 05:00:34;;;;;;;20.45;7.43;;;7.80;99.90;;;;;;6187332;23;20058;-82
2022/11/25 05:02:59;;;;;;;22.80;7.57;;;7.80;99.90;;;;;;6187723;23;20052;-82
2022/11/25 05:05:25;;;;;;;20.27;7.05;;;7.80;99.90;;;;;;6187637;23;20017;-82
2022/11/25 05:07:51;;;;;;;20.63;7.88;;;7.80;99.90;;;;;;6187396;23;20088;-82
2022/11/25 05:10:17;;;;;;;16.65;7.70;;;7.80;99.90;;;;;;6187719;23;20020;-81
2022/11/25 05:12:42;;;;;;;18.90;7.60;;;7.80;99.90;;;;;;6187673;23;20025;-82
2022/11/25 05:15:09;;;;;;;21.25;7.43;;;7.80;99.90;;;;;;6187098;23;20057;-82
2022/11/25 05:17:35;;;;;;;26.67;7.68;;;7.80;99.90;;;;;;6187585;23;20089;-82
2022/11/25 05:20:00;;;;;;;25.80;7.93;;;7.80;99.90;;;;;;6161214;23;20393;-82
2022/11/25 05:22:29;;;;;;;24.60;8.07;;;7.80;99.90;;;;;;6160953;23;20096;-81
2022/11/25 05:24:55;;;;;;;20.65;8.02;;;7.70;99.90;;;;;;6160781;23;20024;-82
2022/11/25 05:27:21;;;;;;;25.52;9.10;;;7.80;99.90;;;;;;6187432;23;20021;-81
2022/11/25 05:29:47;;;;;;;22.50;8.52;;;7.70;99.90;;;;;;6160849;23;20430;-82
2022/11/25 05:32:13;;;;;;;23.35;7.88;;;7.70;99.90;;;;;;6187012;23;20420;-82
2022/11/25 05:34:40;;;;;;;18.83;8.18;;;7.70;99.90;;;;;;6160755;23;20024;-82
2022/11/25 05:37:07;;;;;;;21.65;7.63;;;7.70;99.90;;;;;;6160775;23;20457;-82
2022/11/25 05:39:33;;;;;;;28.55;8.82;;;7.70;99.90;;;;;;6187370;23;20013;-82
2022/11/25 05:41:58;;;;;;;28.20;9.07;;;7.60;99.90;;;;;;6187001;23;20450;-81
2022/11/25 05:44:24;;;;;;;26.23;9.13;;;7.60;99.90;;;;;;6187305;23;20020;-82
2022/11/25 05:46:50;;;;;;;27.10;9.27;;;7.70;99.90;;;;;;6187346;23;20024;-82
2022/11/25 05:49:17;;;;;;;24.27;9.30;;;7.60;99.90;;;;;;6187189;23;20056;-82
2022/11/25 05:51:43;;;;;;;24.15;7.82;;;7.60;99.90;;;;;;6160585;23;20096;-81
2022/11/25 05:54:09;;;;;;;26.65;9.00;;;7.70;99.90;;;;;;6187550;23;20401;-81
2022/11/25 05:56:35;;;;;;;28.25;9.77;;;7.70;99.90;;;;;;6187221;23;20013;-81
2022/11/25 05:59:01;;;;;;;25.38;8.98;;;7.70;99.90;;;;;;6160591;23;20021;-82
2022/11/25 06:01:27;;;;;;;27.90;8.73;;;7.70;99.90;;;;;;6187210;23;20017;-82
2022/11/25 06:03:52;;;;;;;33.22;9.98;;;7.80;99.90;;;;;;6160480;23;20020;-81
2022/11/25 06:06:19;;;;;;;22.75;8.95;;;7.80;99.90;;;;;;6160339;23;20075;-81
2022/11/25 06:08:44;;;;;;;22.95;8.73;;;7.80;99.90;;;;;;6187102;23;20017;-82
2022/11/25 06:11:13;;;;;;;22.65;8.55;;;7.80;99.90;;;;;;6187138;23;20068;-81
2022/11/25 06:13:40;;;;;;;26.58;8.07;;;7.80;99.90;;;;;;6187067;23;20017;-81
2022/11/25 06:16:11;;;;;;;26.73;9.65;;;7.80;99.90;;;;;;6186557;23;20013;-81
2022/11/25 06:18:38;;;;;;;28.50;8.98;;;7.80;99.90;;;;;;6160361;23;20028;-82
2022/11/25 06:21:04;;;;;;;20.27;7.85;;;7.80;99.90;;;;;;6160237;23;20445;-82
2022/11/25 06:23:30;;;;;;;19.60;7.90;;;7.80;99.90;;;;;;6160300;23;20315;-82
2022/11/25 06:26:07;;;;;;;24.63;9.57;;;7.80;99.90;;;;;;6186923;23;20476;-82
2022/11/25 06:28:34;;;;;;;23.75;8.38;;;7.90;99.90;;;;;;6186519;23;20025;-82
2022/11/25 06:31:10;;;;;;;28.25;8.20;;;7.90;99.90;;;;;;6186744;23;20083;-82
2022/11/25 06:33:35;;;;;;;23.00;8.27;;;7.90;99.90;;;;;;6186854;23;20063;-81
2022/11/25 06:36:03;;;;;;;23.85;8.45;;;7.90;99.90;;;;;;6186854;23;20318;-81
2022/11/25 06:38:29;;;;;;;23.50;8.38;;;7.90;99.90;;;;;;6186819;23;20024;-81
2022/11/25 06:40:59;;;;;;;28.30;9.05;;;8.00;99.90;;;;;;6186507;23;20021;-82
2022/11/25 06:43:24;;;;;;;22.27;7.78;;;8.00;99.90;;;;;;6187122;23;20016;-82
2022/11/25 06:45:50;;;;;;;27.65;8.68;;;8.00;99.90;;;;;;6186670;23;20021;-80
2022/11/25 06:48:16;;;;;;;32.38;10.57;;;8.00;99.90;;;;;;6186709;23;20017;-81
2022/11/25 06:50:41;;;;;;;22.60;8.60;;;8.00;99.90;;;;;;6186466;23;20450;-81
2022/11/25 06:53:07;;;;;;;24.38;9.07;;;8.00;99.90;;;;;;6159994;23;20021;-81
2022/11/25 06:55:32;;;;;;;25.73;8.57;;;8.00;99.90;;;;;;6160030;23;20480;-81
2022/11/25 06:57:58;;;;;;;24.23;8.25;;;8.10;99.90;;;;;;6186310;23;20025;-81
2022/11/25 07:00:24;;;;;;;31.10;8.95;;;8.10;99.90;;;;;;6186645;23;20052;-81
2022/11/25 07:02:49;;;;;;;33.60;10.20;;;8.00;99.90;;;;;;6186576;23;20048;-81
2022/11/25 07:05:15;;;;;;;25.77;7.95;;;7.90;99.90;;;;;;6186161;23;20080;-81
2022/11/25 07:07:41;;;;;;;23.02;8.80;;;8.00;99.90;;;;;;6159732;23;20017;-81
2022/11/25 07:10:07;;;;;;;23.13;9.07;;;8.00;99.90;;;;;;6186333;23;20013;-81
2022/11/25 07:12:33;;;;;;;25.80;9.38;;;8.00;99.90;;;;;;6159727;23;20088;-81
2022/11/25 07:14:58;;;;;;;23.25;8.18;;;8.00;99.90;;;;;;6185716;23;20103;-81
2022/11/25 07:17:24;;;;;;;20.25;8.63;;;8.00;99.90;;;;;;6185605;23;20021;-82
2022/11/25 07:19:50;;;;;;;27.25;8.43;;;8.00;99.90;;;;;;6158625;23;20027;-81
2022/11/25 07:22:15;;;;;;;31.48;8.88;;;8.00;99.90;;;;;;6159764;23;20333;-82
2022/11/25 07:24:41;;;;;;;22.13;7.75;;;7.90;99.90;;;;;;6159723;23;20021;-81
2022/11/25 07:27:07;;;;;;;23.65;8.15;;;7.90;99.90;;;;;;6186249;23;20017;-82
2022/11/25 07:29:34;;;;;;;22.90;7.60;;;7.90;99.90;;;;;;6159609;23;20094;-82
2022/11/25 07:32:00;;;;;;;26.70;8.13;;;7.90;99.90;;;;;;6186309;23;20017;-82
2022/11/25 07:34:26;;;;;;;22.67;8.38;;;7.90;99.90;;;;;;6185298;23;20037;-82
2022/11/25 07:36:52;;;;;;;25.80;9.68;;;7.80;99.90;;;;;;6159265;23;20021;-82
2022/11/25 07:39:20;;;;;;;27.17;9.63;;;7.80;99.90;;;;;;6185684;23;20021;-81
2022/11/25 07:41:48;;;;;;;33.42;10.00;;;7.80;99.90;;;;;;6185561;23;20096;-81
2022/11/25 07:44:14;;;;;;;27.50;9.85;;;7.70;99.90;;;;;;6185678;23;20032;-82
2022/11/25 07:46:43;;;;;;;29.02;8.68;;;7.80;99.90;;;;;;6185825;23;20025;-82
2022/11/25 07:49:14;;;;;;;24.05;8.02;;;7.80;99.90;;;;;;6185902;23;20088;-82
2022/11/25 07:51:50;;;;;;;23.55;7.75;;;7.70;99.90;;;;;;6159330;23;20021;-82
2022/11/25 07:54:16;;;;;;;29.10;8.88;;;7.70;99.90;;;;;;6159452;23;20028;-83
2022/11/25 07:56:43;;;;;;;25.92;8.40;;;7.80;99.90;;;;;;6185532;23;20021;-84
2022/11/25 07:59:13;;;;;;;25.95;7.85;;;7.80;99.90;;;;;;6159261;23;20048;-82
2022/11/25 08:01:39;;;;;;;31.45;8.90;;;7.70;99.90;;;;;;6159281;23;20071;-83
2022/11/25 08:04:07;;;;;;;22.55;8.85;;;7.70;99.90;;;;;;6159318;23;20017;-82
2022/11/25 08:06:37;;;;;;;22.92;8.82;;;7.70;99.90;;;;;;6159151;23;20101;-82
2022/11/25 08:09:03;;;;;;;24.10;7.80;;;7.70;99.90;;;;;;6185542;23;20338;-82
2022/11/25 08:11:30;;;;;;;23.73;8.00;;;7.70;99.90;;;;;;6185338;23;20017;-83
2022/11/25 08:13:57;;;;;;;28.65;8.10;;;7.70;99.90;;;;;;6159177;23;20014;-82
2022/11/25 08:16:26;;;;;;;24.17;8.25;;;7.80;99.90;;;;;;6185317;23;20013;-84
2022/11/25 08:18:53;;;;;;;27.23;8.32;;;7.80;99.90;;;;;;6185528;23;20025;-82
2022/11/25 08:21:19;;;;;;;21.90;7.95;;;7.80;99.90;;;;;;6158998;23;20017;-84
2022/11/25 08:23:51;;;;;;;24.23;8.63;;;7.80;99.90;;;;;;6158528;23;20322;-82
2022/11/25 08:26:25;;;;;;;27.77;7.82;;;7.80;99.90;;;;;;6159003;23;20017;-83
2022/11/25 08:28:54;;;;;;;24.77;8.80;;;7.80;99.90;;;;;;6159102;23;20323;-83
2022/11/25 08:31:26;;;;;;;22.30;8.35;;;7.80;99.90;;;;;;6159474;23;20021;-83
2022/11/25 08:33:52;;;;;;;21.13;8.10;;;7.80;99.90;;;;;;6159050;23;20017;-84
2022/11/25 08:36:19;;;;;;;21.35;7.78;;;7.80;99.90;;;;;;6159001;23;20013;-83
2022/11/25 08:38:47;;;;;;;21.23;7.90;;;7.80;99.90;;;;;;6159042;23;20025;-84
2022/11/25 08:41:22;;;;;;;19.15;7.85;;;7.80;99.90;;;;;;6185798;23;20024;-84
2022/11/25 08:43:49;;;;;;;27.70;8.90;;;7.80;99.90;;;;;;6185133;23;20017;-84
2022/11/25 08:46:21;;;;;;;26.23;9.20;;;7.80;99.90;;;;;;6185316;23;20056;-83
2022/11/25 08:48:47;;;;;;;23.63;8.23;;;7.80;99.90;;;;;;6158999;23;20096;-84
2022/11/25 08:51:16;;;;;;;21.40;8.93;;;7.90;99.90;;;;;;6159041;23;20052;-84
2022/11/25 08:53:43;;;;;;;25.63;8.07;;;7.90;99.90;;;;;;6160295;23;20013;-84
2022/11/25 08:56:09;;;;;;;28.35;8.70;;;8.00;99.90;;;;;;6160785;23;20024;-82
2022/11/25 08:58:35;;;;;;;24.60;7.45;;;8.00;99.90;;;;;;6187344;23;20024;-81
2022/11/25 09:01:02;;;;;;;25.33;7.90;;;8.00;99.90;;;;;;6187398;23;20025;-84
2022/11/25 09:03:31;;;;;;;18.02;7.60;;;8.00;99.90;;;;;;6160662;23;20044;-83
2022/11/25 09:05:57;;;;;;;25.75;8.07;;;8.10;99.90;;;;;;6160486;23;20432;-82
2022/11/25 09:08:22;;;;;;;19.10;7.45;;;8.10;99.90;;;;;;6160637;23;20485;-83
2022/11/25 09:10:50;;;;;;;17.42;6.90;;;8.20;99.90;;;;;;6187386;23;20334;-82
2022/11/25 09:13:15;;;;;;;21.45;7.72;;;8.20;99.90;;;;;;6186804;23;20017;-82
2022/11/25 09:15:41;;;;;;;19.98;7.28;;;8.20;99.90;;;;;;6184811;23;20017;-83
2022/11/25 09:18:08;;;;;;;19.98;6.47;;;8.30;99.90;;;;;;6187440;23;20025;-83
2022/11/25 09:20:37;;;;;;;21.83;7.30;;;8.40;99.90;;;;;;6160658;23;20071;-83
2022/11/25 09:23:02;;;;;;;16.77;6.57;;;8.40;99.90;;;;;;6186606;23;20052;-82
2022/11/25 09:25:29;;;;;;;21.08;6.63;;;8.40;99.90;;;;;;6160716;23;20013;-82
2022/11/25 09:27:55;;;;;;;17.10;5.90;;;8.50;99.90;;;;;;6186910;23;20449;-82
2022/11/25 09:30:22;;;;;;;24.20;6.53;;;8.50;99.90;;;;;;6186803;23;20472;-82
2022/11/25 09:32:50;;;;;;;13.77;6.07;;;8.70;99.90;;;;;;6186946;23;20025;-82
2022/11/25 09:35:16;;;;;;;16.73;5.80;;;8.60;99.90;;;;;;6187350;23;20012;-82
2022/11/25 09:37:42;;;;;;;16.63;6.15;;;8.70;99.90;;;;;;6187341;23;20060;-81
2022/11/25 09:40:16;;;;;;;16.10;6.05;;;8.80;99.90;;;;;;6186964;23;20017;-81
2022/11/25 09:49:20;;;;;;;14.60;5.22;;;8.90;99.90;;;;;;6160526;23;20025;-81
2022/11/25 09:51:57;;;;;;;12.93;5.55;;;9.00;99.90;;;;;;6161404;23;20035;-81
2022/11/25 09:54:36;;;;;;;14.57;5.35;;;9.20;99.90;;;;;;6187143;23;20052;-81
2022/11/25 09:57:10;;;;;;;13.73;5.22;;;9.30;99.90;;;;;;6186789;23;20368;-81
2022/11/25 09:59:53;;;;;;;13.57;4.68;;;9.20;99.90;;;;;;6186729;23;20028;-81
2022/11/25 10:02:33;;;;;;;16.15;4.88;;;9.20;99.90;;;;;;6160873;23;20096;-81
2022/11/25 10:05:14;;;;;;;13.98;5.28;;;9.30;99.90;;;;;;6159934;23;20028;-81
2022/11/25 10:07:48;;;;;;;13.10;5.40;;;9.30;99.90;;;;;;6187048;23;20021;-81
2022/11/25 10:10:22;;;;;;;19.25;5.82;;;9.30;99.90;;;;;;6187036;23;20023;-81
2022/11/25 10:12:50;;;;;;;17.73;4.82;;;9.30;99.90;;;;;;6160251;23;20020;-81
2022/11/25 10:15:21;;;;;;;14.15;4.93;;;9.40;99.90;;;;;;6186548;23;20075;-81
2022/11/25 10:17:54;;;;;;;16.17;4.97;;;9.40;99.90;;;;;;6160237;23;20442;-81
2022/11/25 10:20:21;;;;;;;16.45;5.38;;;9.50;99.90;;;;;;6186973;23;20021;-81
2022/11/25 10:22:52;;;;;;;17.13;5.65;;;9.60;99.90;;;;;;6160021;23;20021;-81
2022/11/25 10:25:20;;;;;;;19.30;5.57;;;9.50;99.90;;;;;;6186538;23;20468;-81
2022/11/25 10:28:03;;;;;;;19.60;6.43;;;9.60;99.90;;;;;;6186387;23;20025;-81
2022/11/25 10:30:47;;;;;;;13.95;4.80;;;9.70;99.90;;;;;;6186916;23;20013;-81
2022/11/25 10:33:17;;;;;;;14.13;5.05;;;9.70;99.90;;;;;;6186407;23;20448;-81
2022/11/25 10:35:57;;;;;;;24.30;6.05;;;9.70;99.90;;;;;;6186726;23;20017;-80
2022/11/25 10:39:00;;;;;;;17.92;4.82;;;9.80;99.90;;;;;;6186763;23;20079;-81
2022/11/25 10:41:30;;;;;;;19.33;5.32;;;9.80;99.90;;;;;;6186319;23;20441;-80
2022/11/25 10:43:56;;;;;;;21.77;5.80;;;9.90;99.90;;;;;;6186700;23;20013;-81
2022/11/25 10:46:54;;;;;;;21.33;4.63;;;9.90;99.90;;;;;;6159878;23;20442;-80
2022/11/25 10:49:34;;;;;;;20.15;5.60;;;10.00;99.90;;;;;;6186679;23;20048;-81
2022/11/25 10:52:01;;;;;;;16.23;4.43;;;10.10;99.90;;;;;;6186238;23;20453;-80
2022/11/25 10:54:28;;;;;;;15.40;4.88;;;10.10;99.90;;;;;;6159996;23;20023;-80
2022/11/25 10:56:59;;;;;;;16.05;4.85;;;10.20;99.90;;;;;;6186513;23;20013;-80
2022/11/25 10:59:31;;;;;;;14.88;4.65;;;10.20;99.90;;;;;;6186184;23;20013;-80
2022/11/25 11:02:15;;;;;;;16.58;4.60;;;10.30;99.90;;;;;;6186487;23;20044;-80
2022/11/25 11:05:15;;;;;;;20.48;5.22;;;10.20;99.90;;;;;;6186130;23;20048;-81
2022/11/25 11:07:43;;;;;;;16.02;4.38;;;10.30;99.90;;;;;;6186151;23;20346;-80
2022/11/25 11:10:22;;;;;;;10.77;5.13;;;10.30;99.90;;;;;;6159785;23;20021;-81
2022/11/25 11:12:56;;;;;;;14.95;4.80;;;10.30;99.90;;;;;;6186346;23;20040;-81
2022/11/25 11:15:40;;;;;;;18.23;4.85;;;10.30;99.90;;;;;;6185837;23;20057;-80
2022/11/25 11:18:24;;;;;;;13.98;4.18;;;10.40;99.90;;;;;;6186425;23;20099;-81
2022/11/25 11:20:56;;;;;;;18.00;5.13;;;10.40;99.90;;;;;;6159698;23;20084;-80
2022/11/25 11:23:22;;;;;;;15.38;5.90;;;10.50;99.90;;;;;;6186460;23;20051;-81
2022/11/25 11:26:03;;;;;;;20.75;5.07;;;10.50;99.90;;;;;;6186265;23;20029;-81
2022/11/25 11:28:35;;;;;;;20.02;4.93;;;10.50;99.90;;;;;;6186235;23;20016;-80
2022/11/25 11:31:18;;;;;;;13.98;4.45;;;10.50;99.90;;;;;;6159690;23;20465;-80
2022/11/25 11:33:47;;;;;;;18.17;5.50;;;10.50;99.90;;;;;;6159716;23;20047;-81
2022/11/25 11:36:31;;;;;;;15.55;4.30;;;10.60;99.90;;;;;;6186013;23;20025;-80
2022/11/25 11:39:29;;;;;;;12.55;4.30;;;10.50;99.90;;;;;;6186373;23;20028;-81
2022/11/25 11:42:30;;;;;;;12.90;4.18;;;10.60;99.90;;;;;;6186287;23;20017;-81
2022/11/25 11:45:31;;;;;;;27.08;5.43;;;10.60;99.90;;;;;;6159630;23;20017;-80
2022/11/25 11:48:28;;;;;;;16.77;5.25;;;10.70;99.90;;;;;;6169771;23;20014;-80
2022/11/25 11:51:08;;;;;;;17.00;4.38;;;10.70;99.90;;;;;;6185853;23;20310;-81
2022/11/25 11:54:06;;;;;;;17.52;4.75;;;10.70;99.90;;;;;;6186261;23;20013;-80
2022/11/25 11:56:45;;;;;;;22.25;4.93;;;10.80;99.90;;;;;;6185314;23;20064;-80
2022/11/25 11:59:19;;;;;;;13.07;3.88;;;10.80;99.90;;;;;;6185858;23;20480;-79
2022/11/25 12:01:57;;;;;;;18.02;4.38;;;10.90;99.90;;;;;;6186225;23;20044;-80
2022/11/25 12:04:32;;;;;;;14.77;4.75;;;10.90;99.90;;;;;;6186205;23;20017;-80
2022/11/25 12:07:06;;;;;;;25.23;4.22;;;11.00;99.90;;;;;;6185648;23;20323;-79
2022/11/25 12:09:37;;;;;;;15.82;4.97;;;11.00;99.90;;;;;;6186150;23;20032;-80
2022/11/25 12:12:08;;;;;;;16.70;4.30;;;11.00;99.90;;;;;;6159427;23;20338;-80
2022/11/25 12:14:45;;;;;;;12.38;3.95;;;11.00;99.90;;;;;;6185685;23;20025;-79
2022/11/25 12:17:17;;;;;;;20.67;3.85;;;11.10;99.90;;;;;;6186075;23;20021;-80
2022/11/25 12:20:11;;;;;;;18.98;4.07;;;11.10;99.90;;;;;;6159524;23;20063;-81
2022/11/25 12:23:02;;;;;;;15.95;3.83;;;11.10;99.90;;;;;;6185695;23;20433;-81
2022/11/25 12:25:40;;;;;;;18.42;4.00;;;11.10;99.90;;;;;;6185987;23;20084;-80
2022/11/25 12:28:24;;;;;;;23.42;4.22;;;11.00;99.90;;;;;;6160422;23;20493;-80
2022/11/25 12:31:11;;;;;;;13.63;3.28;;;10.90;99.90;;;;;;6161325;23;20017;-80
2022/11/25 12:34:02;;;;;;;17.52;3.22;;;10.80;99.90;;;;;;6161305;23;20028;-80
2022/11/25 12:36:40;;;;;;;26.02;4.35;;;10.80;99.90;;;;;;6187686;23;20025;-81
2022/11/25 12:39:33;;;;;;;17.67;3.30;;;10.80;99.90;;;;;;6187824;23;20021;-80
2022/11/25 12:42:02;;;;;;;18.02;3.63;;;10.80;99.90;;;;;;6161295;23;20028;-80
2022/11/25 12:44:42;;;;;;;21.77;3.33;;;10.90;99.90;;;;;;6187753;23;20084;-80
2022/11/25 12:47:10;;;;;;;20.00;3.53;;;11.00;99.90;;;;;;6161071;23;20319;-80
2022/11/25 12:49:47;;;;;;;21.75;3.50;;;11.00;99.90;;;;;;6187811;23;20013;-80
2022/11/25 12:52:28;;;;;;;20.13;3.00;;;11.10;99.90;;;;;;6187791;23;20024;-80
2022/11/25 12:55:12;;;;;;;30.45;4.63;;;11.10;99.90;;;;;;6187329;23;20029;-80
2022/11/25 12:58:12;;;;;;;17.58;3.83;;;11.00;99.90;;;;;;6161089;23;20025;-80
2022/11/25 13:01:02;;;;;;;24.55;3.25;;;11.00;99.90;;;;;;6187331;23;20512;-81
2022/11/25 13:03:46;;;;;;;16.35;2.65;;;11.10;99.90;;;;;;6188076;23;20488;-80
2022/11/25 13:06:18;;;;;;;17.75;3.60;;;11.00;99.90;;;;;;6187498;23;20033;-80
2022/11/25 13:09:02;;;;;;;16.55;3.00;;;11.10;99.90;;;;;;6186538;23;20433;-80
2022/11/25 13:11:52;;;;;;;24.55;2.90;;;11.10;99.90;;;;;;6187326;23;20016;-79